createdAt,value
2018-08-11T00:00:32.041Z,75.82
2018-08-11T00:01:42.163Z,75.82
2018-08-11T00:02:52.243Z,76.01
2018-08-11T00:04:02.318Z,76.21
2018-08-11T00:05:12.412Z,76.11
2018-08-11T00:06:22.222Z,76.01
2018-08-11T00:07:32.287Z,75.82
2018-08-11T00:08:42.094Z,75.92
2018-08-11T00:09:52.191Z,76.11
2018-08-11T00:11:02.004Z,75.92
2018-08-11T00:12:12.097Z,76.11
2018-08-11T00:13:22.160Z,76.4
2018-08-11T00:14:32.280Z,75.82
2018-08-11T00:15:42.354Z,76.11
2018-08-11T00:16:52.434Z,76.01
2018-08-11T00:18:02.523Z,76.21
2018-08-11T00:19:12.615Z,76.11
2018-08-11T00:20:22.671Z,75.82
2018-08-11T00:21:32.490Z,76.11
2018-08-11T00:22:42.567Z,76.01
2018-08-11T00:23:52.666Z,76.11
2018-08-11T00:25:02.518Z,75.73
2018-08-11T00:26:12.593Z,76.01
2018-08-11T00:27:22.657Z,76.11
2018-08-11T00:28:32.464Z,75.82
2018-08-11T00:29:42.527Z,76.01
2018-08-11T00:30:52.339Z,76.11
2018-08-11T00:32:02.417Z,76.01
2018-08-11T00:33:12.224Z,76.11
2018-08-11T00:34:22.292Z,76.01
2018-08-11T00:35:32.360Z,75.92
2018-08-11T00:36:42.451Z,76.21
2018-08-11T00:37:52.258Z,75.82
2018-08-11T00:39:02.096Z,76.11
2018-08-11T00:40:12.176Z,75.92
2018-08-11T00:41:22.243Z,75.73
2018-08-11T00:42:32.305Z,75.92
2018-08-11T00:43:42.383Z,76.01
2018-08-11T00:44:52.463Z,76.06
2018-08-11T00:46:02.557Z,76.06
2018-08-11T00:47:12.626Z,75.96
2018-08-11T00:48:22.693Z,76.15
2018-08-11T00:49:32.944Z,76.34
2018-08-11T00:50:43.292Z,76.5
2018-08-11T00:51:53.103Z,76.69
2018-08-11T00:53:03.182Z,76.69
2018-08-11T00:54:13.248Z,76.69
2018-08-11T00:55:23.379Z,76.59
2018-08-11T00:56:33.463Z,76.78
2018-08-11T00:57:43.527Z,76.78
2018-08-11T00:58:53.611Z,76.69
2018-08-11T01:00:03.685Z,76.59
2018-08-11T01:01:13.761Z,76.59
2018-08-11T01:02:23.918Z,76.5
2018-08-11T01:03:34.298Z,76.78
2018-08-11T01:04:44.102Z,76.69
2018-08-11T01:05:54.160Z,76.78
2018-08-11T01:07:04.231Z,76.69
2018-08-11T01:08:13.775Z,76.78
2018-08-11T01:09:23.849Z,76.69
2018-08-11T01:10:33.970Z,76.11
2018-08-11T01:11:44.070Z,76.21
2018-08-11T01:12:54.200Z,76.21
2018-08-11T01:14:04.275Z,76.11
2018-08-11T01:15:14.085Z,76.59
2018-08-11T01:16:23.904Z,76.21
2018-08-11T01:17:33.982Z,76.78
2018-08-11T01:18:44.057Z,76.4
2018-08-11T01:19:54.142Z,76.69
2018-08-11T01:21:03.956Z,76.5
2018-08-11T01:22:13.771Z,76.69
2018-08-11T01:23:23.840Z,76.78
2018-08-11T01:24:33.925Z,76.78
2018-08-11T01:25:43.468Z,76.5
2018-08-11T01:26:53.541Z,76.78
2018-08-11T01:28:03.603Z,76.69
2018-08-11T01:29:13.674Z,76.69
2018-08-11T01:30:23.734Z,76.78
2018-08-11T01:31:33.811Z,76.5
2018-08-11T01:32:43.896Z,76.69
2018-08-11T01:33:54.241Z,76.78
2018-08-11T01:35:04.366Z,76.59
2018-08-11T01:36:14.174Z,76.31
2018-08-11T01:37:24.000Z,76.69
2018-08-11T01:38:34.091Z,76.69
2018-08-11T01:39:44.179Z,76.11
2018-08-11T01:40:54.254Z,76.59
2018-08-11T01:42:04.313Z,76.78
2018-08-11T01:43:14.394Z,76.11
2018-08-11T01:44:24.741Z,76.21
2018-08-11T01:45:34.947Z,76.11
2018-08-11T01:46:44.764Z,76.5
2018-08-11T01:47:54.839Z,76.4
2018-08-11T01:49:04.925Z,76.11
2018-08-11T01:50:14.991Z,76.69
2018-08-11T01:51:25.058Z,76.88
2018-08-11T01:52:34.897Z,76.5
2018-08-11T01:53:44.703Z,76.4
2018-08-11T01:54:54.512Z,76.21
2018-08-11T01:56:04.319Z,76.88
2018-08-11T01:57:14.406Z,76.88
2018-08-11T01:58:24.476Z,76.31
2018-08-11T01:59:34.569Z,76.31
2018-08-11T02:00:44.641Z,76.31
2018-08-11T02:01:54.697Z,76.31
2018-08-11T02:03:04.765Z,76.4
2018-08-11T02:04:14.576Z,76.31
2018-08-11T02:05:24.715Z,76.31
2018-08-11T02:06:34.525Z,76.21
2018-08-11T02:07:44.604Z,76.11
2018-08-11T02:08:54.677Z,76.11
2018-08-11T02:10:04.522Z,76.11
2018-08-11T02:11:14.733Z,76.69
2018-08-11T02:12:24.912Z,76.31
2018-08-11T02:13:34.714Z,76.78
2018-08-11T02:14:44.536Z,76.11
2018-08-11T02:15:54.352Z,76.11
2018-08-11T02:17:04.436Z,76.25
2018-08-11T02:18:14.520Z,76.25
2018-08-11T02:19:24.581Z,76.44
2018-08-11T02:20:34.639Z,76.53
2018-08-11T02:21:44.716Z,76.15
2018-08-11T02:22:54.804Z,76.34
2018-08-11T02:24:04.624Z,76.53
2018-08-11T02:25:14.697Z,76.73
2018-08-11T02:26:24.771Z,76.53
2018-08-11T02:27:34.837Z,76.53
2018-08-11T02:28:44.685Z,76.73
2018-08-11T02:29:54.759Z,76.5
2018-08-11T02:31:04.861Z,76.53
2018-08-11T02:32:14.927Z,76.73
2018-08-11T02:33:24.998Z,76.73
2018-08-11T02:34:34.870Z,76.82
2018-08-11T02:35:44.969Z,76.78
2018-08-11T02:36:54.784Z,76.73
2018-08-11T02:38:04.877Z,76.73
2018-08-11T02:39:14.691Z,76.53
2018-08-11T02:40:24.786Z,76.78
2018-08-11T02:41:34.861Z,76.5
2018-08-11T02:42:44.670Z,76.73
2018-08-11T02:43:54.748Z,76.44
2018-08-11T02:45:04.820Z,76.73
2018-08-11T02:46:14.645Z,76.82
2018-08-11T02:47:24.715Z,76.73
2018-08-11T02:48:34.792Z,76.73
2018-08-11T02:49:44.608Z,76.63
2018-08-11T02:50:54.447Z,76.63
2018-08-11T02:52:04.539Z,76.63
2018-08-11T02:53:14.359Z,76.82
2018-08-11T02:54:24.172Z,76.92
2018-08-11T02:55:34.262Z,76.63
2018-08-11T02:56:44.348Z,76.82
2018-08-11T02:57:54.226Z,76.73
2018-08-11T02:59:04.050Z,76.53
2018-08-11T03:00:14.136Z,76.63
2018-08-11T03:01:24.206Z,76.73
2018-08-11T03:02:34.470Z,76.73
2018-08-11T03:34:50.084Z,72.18
2018-08-11T03:35:59.885Z,72.47
2018-08-11T03:37:09.960Z,73.24
2018-08-11T03:38:20.027Z,73.1
2018-08-11T03:39:29.810Z,73.68
2018-08-11T03:40:39.896Z,74.44
2018-08-11T03:41:49.952Z,74.64
2018-08-11T03:43:00.004Z,75.45
2018-08-11T03:44:09.814Z,75.45
2018-08-11T03:45:19.880Z,75.63
2018-08-11T03:46:29.938Z,75.73
2018-08-11T03:47:40.016Z,75.57
2018-08-11T03:48:49.820Z,75.87
2018-08-11T03:49:59.624Z,76.15
2018-08-11T03:51:09.726Z,76.06
2018-08-11T03:52:19.839Z,76
2018-08-11T03:53:30.166Z,76.48
2018-08-11T03:54:39.942Z,76.67
2018-08-11T03:55:50.025Z,76.57
2018-08-11T03:57:00.091Z,76.39
2018-08-11T03:58:10.151Z,76.19
2018-08-11T03:59:19.955Z,76.71
2018-08-11T04:00:30.055Z,76.23
2018-08-11T04:01:39.627Z,76.42
2018-08-11T04:02:49.694Z,76.42
2018-08-11T04:03:59.771Z,76.71
2018-08-11T04:05:09.851Z,76.71
2018-08-11T04:06:19.887Z,76.14
2018-08-11T04:07:29.980Z,76.65
2018-08-11T04:08:39.793Z,76.75
2018-08-11T04:09:49.896Z,76.75
2018-08-11T04:10:59.968Z,76.46
2018-08-11T04:12:10.035Z,76.56
2018-08-11T04:13:20.111Z,76.17
2018-08-11T04:14:30.173Z,76.56
2018-08-11T04:15:40.226Z,76.17
2018-08-11T04:16:50.301Z,76.46
2018-08-11T04:18:00.383Z,76.5
2018-08-11T04:19:10.463Z,76.17
2018-08-11T04:20:20.529Z,76.21
2018-08-11T04:21:30.601Z,76.21
2018-08-11T04:22:40.724Z,76.5
2018-08-11T04:23:50.856Z,76.21
2018-08-11T04:25:00.936Z,76.21
2018-08-11T04:26:11.008Z,76.31
2018-08-11T04:27:20.604Z,76.5
2018-08-11T04:28:30.662Z,76.31
2018-08-11T04:29:40.719Z,76.31
2018-08-11T04:30:50.582Z,76.31
2018-08-11T04:32:00.656Z,76.4
2018-08-11T04:33:10.525Z,76.88
2018-08-11T04:34:20.081Z,76.5
2018-08-11T04:35:29.656Z,76.11
2018-08-11T04:36:39.562Z,76.59
2018-08-11T04:37:49.660Z,76.4
2018-08-11T04:38:59.483Z,76.5
2018-08-11T04:40:09.558Z,76.59
2018-08-11T04:41:19.116Z,76.65
2018-08-11T04:42:29.192Z,76.75
2018-08-11T04:43:39.279Z,76.56
2018-08-11T04:44:49.102Z,76.65
2018-08-11T04:45:58.908Z,76.75
2018-08-11T04:47:08.977Z,76.75
2018-08-11T04:48:18.795Z,76.56
2018-08-11T04:49:28.851Z,76.65
2018-08-11T04:50:38.922Z,76.75
2018-08-11T04:51:48.730Z,76.56
2018-08-11T04:52:58.818Z,76.65
2018-08-11T04:54:08.616Z,76.65
2018-08-11T04:55:18.448Z,76.65
2018-08-11T04:56:28.517Z,76.65
2018-08-11T04:57:38.596Z,76.07
2018-08-11T04:58:48.663Z,76.26
2018-08-11T04:59:58.727Z,76.26
2018-08-11T05:01:08.803Z,76.07
2018-08-11T05:02:18.880Z,76.65
2018-08-11T05:03:28.953Z,76.07
2018-08-11T05:04:39.025Z,76.07
2018-08-11T05:05:49.112Z,75.98
2018-08-11T05:06:59.184Z,75.98
2018-08-11T05:08:09.019Z,76.11
2018-08-11T05:09:19.086Z,76.01
2018-08-11T05:10:29.152Z,76.21
2018-08-11T05:11:38.979Z,75.92
2018-08-11T05:12:49.068Z,75.92
2018-08-11T05:13:59.130Z,75.92
2018-08-11T05:15:08.941Z,76.21
2018-08-11T05:16:19.022Z,76.01
2018-08-11T05:17:28.817Z,76.31
2018-08-11T05:18:38.894Z,76.11
2018-08-11T05:19:49.029Z,76.11
2018-08-11T05:20:59.075Z,76.31
2018-08-11T05:22:09.161Z,76.34
2018-08-11T05:23:19.232Z,76.06
2018-08-11T05:24:29.043Z,75.86
2018-08-11T05:25:38.597Z,76.25
2018-08-11T05:26:48.680Z,75.96
2018-08-11T05:27:58.529Z,76.06
2018-08-11T05:29:08.620Z,76.06
2018-08-11T05:30:18.193Z,76.44
2018-08-11T05:31:28.289Z,76.63
2018-08-11T05:32:38.376Z,76.25
2018-08-11T05:33:48.184Z,76.34
2018-08-11T05:34:58.008Z,76.25
2018-08-11T05:36:08.088Z,76.53
2018-08-11T05:37:18.158Z,76.34
2018-08-11T05:38:28.226Z,76.34
2018-08-11T05:39:38.301Z,76.15
2018-08-11T05:40:47.851Z,76.15
2018-08-11T05:41:57.937Z,76.38
2018-08-11T05:43:08.279Z,76.73
2018-08-11T05:44:18.088Z,76.18
2018-08-11T05:45:28.160Z,76.57
2018-08-11T05:46:38.248Z,76.28
2018-08-11T05:47:48.335Z,76.48
2018-08-11T05:48:58.429Z,76.38
2018-08-11T05:50:08.484Z,76.18
2018-08-11T05:51:18.314Z,76.09
2018-08-11T05:52:28.391Z,75.9
2018-08-11T05:53:38.463Z,75.8
2018-08-11T05:54:48.277Z,76.13
2018-08-11T05:55:58.347Z,76.28
2018-08-11T05:57:08.404Z,76.32
2018-08-11T05:58:18.501Z,76.03
2018-08-11T05:59:28.561Z,76.03
2018-08-11T06:00:38.623Z,76.13
2018-08-11T06:01:48.686Z,75.74
2018-08-11T06:02:58.769Z,75.45
2018-08-11T06:04:08.689Z,75.74
2018-08-11T06:05:18.795Z,75.78
2018-08-11T06:06:28.657Z,75.68
2018-08-11T06:07:38.719Z,75.01
2018-08-11T06:08:48.269Z,74.76
2018-08-11T06:09:58.333Z,74.95
2018-08-11T06:11:08.415Z,75.18
2018-08-11T06:12:18.220Z,74.79
2018-08-11T06:13:27.798Z,74.89
2018-08-11T06:14:37.860Z,74.21
2018-08-11T06:15:47.655Z,74.54
2018-08-11T06:16:57.724Z,74.83
2018-08-11T06:18:07.819Z,74.35
2018-08-11T06:19:17.905Z,74.83
2018-08-11T06:20:27.731Z,74.93
2018-08-11T06:21:37.795Z,74.93
2018-08-11T06:22:47.886Z,74.44
2018-08-11T06:23:57.694Z,74.54
2018-08-11T06:25:07.773Z,74.48
2018-08-11T06:26:17.886Z,73.9
2018-08-11T06:27:27.690Z,74
2018-08-11T06:28:37.766Z,74.04
2018-08-11T06:29:47.591Z,74.23
2018-08-11T06:30:56.874Z,74.04
2018-08-11T06:32:07.046Z,74.07
2018-08-11T06:33:17.456Z,73.49
2018-08-11T06:34:27.538Z,73.59
2018-08-11T06:35:37.664Z,73.88
2018-08-11T06:36:47.821Z,73.91
2018-08-11T06:37:57.908Z,73.72
2018-08-11T06:39:07.971Z,73.66
2018-08-11T06:40:17.523Z,72.89
2018-08-11T06:41:27.665Z,72.73
2018-08-11T06:42:37.745Z,72.28
2018-08-11T06:43:47.818Z,72.61
2018-08-11T06:44:57.643Z,72.51
2018-08-11T06:46:07.464Z,72.16
2018-08-11T06:47:17.331Z,72.83
2018-08-11T06:48:27.149Z,72.35
2018-08-11T06:49:36.435Z,72.51
2018-08-11T06:50:46.513Z,72.93
2018-08-11T06:51:56.605Z,73.19
2018-08-11T06:53:06.694Z,73.28
2018-08-11T06:54:16.769Z,73.77
2018-08-11T06:55:26.919Z,74.41
2018-08-11T06:56:37.111Z,74.22
2018-08-11T06:57:47.199Z,74.22
2018-08-11T06:58:57.288Z,73.73
2018-08-11T07:00:07.146Z,73.54
2018-08-11T07:01:17.249Z,73.28
2018-08-11T07:02:27.076Z,73.28
2018-08-11T07:03:37.143Z,73.58
2018-08-11T07:04:47.217Z,73.42
2018-08-11T07:05:57.315Z,73.13
2018-08-11T07:07:07.657Z,72.74
2018-08-11T07:08:17.496Z,72.83
2018-08-11T07:09:27.557Z,73.16
2018-08-11T07:10:37.373Z,73.16
2018-08-11T07:11:47.443Z,73.16
2018-08-11T07:12:57.260Z,72.58
2018-08-11T07:14:07.335Z,72.61
2018-08-11T07:15:17.537Z,72.52
2018-08-11T07:16:28.066Z,72.52
2018-08-11T07:17:37.660Z,72.36
2018-08-11T07:18:47.745Z,72.65
2018-08-11T07:19:57.575Z,72.11
2018-08-11T07:21:07.648Z,71.33
2018-08-11T07:22:17.923Z,71.56
2018-08-11T07:23:28.030Z,71.3
2018-08-11T07:24:38.111Z,71.04
2018-08-11T07:25:47.921Z,71.23
2018-08-11T07:26:57.728Z,71.37
2018-08-11T07:28:07.588Z,70.88
2018-08-11T07:29:17.666Z,71.17
2018-08-11T07:30:27.561Z,71.17
2018-08-11T07:31:37.644Z,70.72
2018-08-11T07:32:47.739Z,70.92
2018-08-11T07:33:57.567Z,70.92
2018-08-11T07:35:07.677Z,70.66
2018-08-11T07:36:17.702Z,71.05
2018-08-11T07:37:28.093Z,70.98
2018-08-11T07:38:38.987Z,71.05
2018-08-11T07:39:49.185Z,71.05
2018-08-11T07:40:59.108Z,70.66
2018-08-11T07:42:08.969Z,70.7
2018-08-11T07:43:19.137Z,71.02
2018-08-11T07:44:29.574Z,70.92
2018-08-11T07:45:39.440Z,70.92
2018-08-11T07:46:49.539Z,71.02
2018-08-11T07:47:59.348Z,71.02
2018-08-11T07:49:09.165Z,71.12
2018-08-11T07:50:19.344Z,71.12
2018-08-11T07:51:29.751Z,70.83
2018-08-11T07:52:39.834Z,70.14
2018-08-11T07:53:49.901Z,70.18
2018-08-11T07:55:00.003Z,69.73
2018-08-11T07:56:09.810Z,70.15
2018-08-11T07:57:19.886Z,69.56
2018-08-11T07:58:29.958Z,70.15
2018-08-11T07:59:40.039Z,70.64
2018-08-11T08:00:50.109Z,70.93
2018-08-11T08:02:00.188Z,70.93
2018-08-11T08:03:10.084Z,70.73
2018-08-11T08:04:19.891Z,70.44
2018-08-11T08:05:29.985Z,71.03
2018-08-11T08:06:39.808Z,71.39
2018-08-11T08:07:49.891Z,71.19
2018-08-11T08:09:00.064Z,71.74
2018-08-11T08:10:09.638Z,71.84
2018-08-11T08:11:19.703Z,72.39
2018-08-11T08:12:29.770Z,72.35
2018-08-11T08:13:39.915Z,72.41
2018-08-11T08:14:50.423Z,72.9
2018-08-11T08:16:00.531Z,72.67
2018-08-11T08:17:10.365Z,72.38
2018-08-11T08:18:20.448Z,72.86
2018-08-11T08:19:30.531Z,73.02
2018-08-11T08:20:40.610Z,73.51
2018-08-11T08:21:50.688Z,73.71
2018-08-11T08:23:00.771Z,73.18
2018-08-11T08:24:10.610Z,73.47
2018-08-11T08:25:20.695Z,73.57
2018-08-11T08:26:31.252Z,73.08
2018-08-11T08:27:42.310Z,72.89
2018-08-11T08:28:52.396Z,72.89
2018-08-11T08:30:02.490Z,72.6
2018-08-11T08:31:12.594Z,72.21
2018-08-11T08:32:22.681Z,72.34
2018-08-11T08:33:32.782Z,71.95
2018-08-11T08:34:42.886Z,71.95
2018-08-11T08:35:52.702Z,71.47
2018-08-11T08:37:02.789Z,71.76
2018-08-11T08:38:12.638Z,72.15
2018-08-11T08:39:22.718Z,71.76
2018-08-11T08:40:32.806Z,71.8
2018-08-11T08:41:42.924Z,71.66
2018-08-11T08:42:53.210Z,71.47
2018-08-11T08:44:03.295Z,71.95
2018-08-11T08:45:13.129Z,71.8
2018-08-11T08:46:23.232Z,71.56
2018-08-11T08:47:33.439Z,71.99
2018-08-11T08:48:43.758Z,71.56
2018-08-11T08:49:53.840Z,72.38
2018-08-11T08:51:03.688Z,72.25
2018-08-11T08:52:13.554Z,72.54
2018-08-11T08:53:23.768Z,72.7
2018-08-11T08:54:34.096Z,73.38
2018-08-11T08:55:44.159Z,73.05
2018-08-11T08:56:54.289Z,73.15
2018-08-11T08:58:04.373Z,73.24
2018-08-11T08:59:14.378Z,73.34
2018-08-11T09:00:23.955Z,73.54
2018-08-11T09:01:34.050Z,73.79
2018-08-11T09:02:44.125Z,73.79
2018-08-11T09:03:54.215Z,73.99
2018-08-11T09:05:04.312Z,73.89
2018-08-11T09:06:14.438Z,74.08
2018-08-11T09:07:24.525Z,73.95
2018-08-11T09:08:34.617Z,74.08
2018-08-11T09:09:44.463Z,74.05
2018-08-11T09:10:54.578Z,74.05
2018-08-11T09:12:04.859Z,73.56
2018-08-11T09:13:15.195Z,73.4
2018-08-11T09:14:25.028Z,73.6
2018-08-11T09:15:34.867Z,73.21
2018-08-11T09:16:44.955Z,73.4
2018-08-11T09:17:55.036Z,73.6
2018-08-11T09:19:04.859Z,73.79
2018-08-11T09:20:14.942Z,73.46
2018-08-11T09:21:24.816Z,73.79
2018-08-11T09:22:34.894Z,73.85
2018-08-11T09:23:44.980Z,73.6
2018-08-11T09:24:55.076Z,73.6
2018-08-11T09:26:05.157Z,73.6
2018-08-11T09:27:15.230Z,73.73
2018-08-11T09:28:25.320Z,73.15
2018-08-11T09:29:35.143Z,73.54
2018-08-11T09:30:44.955Z,73.54
2018-08-11T09:31:54.763Z,73.54
2018-08-11T09:33:04.861Z,73.08
2018-08-11T09:34:14.951Z,73.08
2018-08-11T09:35:25.040Z,72.64
2018-08-11T09:36:34.587Z,72.64
2018-08-11T09:37:44.433Z,72.19
2018-08-11T09:38:54.520Z,72.77
2018-08-11T09:40:04.366Z,72.38
2018-08-11T09:41:14.462Z,72.67
2018-08-11T09:42:24.290Z,72.86
2018-08-11T09:43:34.388Z,73.55
2018-08-11T09:44:44.484Z,72.86
2018-08-11T09:45:54.622Z,73.35
2018-08-11T09:47:04.512Z,73.06
2018-08-11T09:48:14.654Z,73.45
2018-08-11T09:49:24.759Z,73.55
2018-08-11T09:50:34.662Z,73.74
2018-08-11T09:51:44.755Z,73.55
2018-08-11T09:52:54.859Z,73.94
2018-08-11T09:54:04.923Z,73.55
2018-08-11T09:55:14.750Z,73.06
2018-08-11T09:56:24.598Z,73.16
2018-08-11T09:57:34.682Z,72.61
2018-08-11T09:58:44.973Z,72.8
2018-08-11T09:59:55.643Z,72.8
2018-08-11T10:01:05.723Z,72.25
2018-08-11T10:02:15.826Z,71.8
2018-08-11T10:03:25.909Z,72
2018-08-11T10:04:35.984Z,71.25
2018-08-11T10:05:45.834Z,71.29
2018-08-11T10:06:55.907Z,70.34
2018-08-11T10:08:06.020Z,70.21
2018-08-11T10:09:16.117Z,70.25
2018-08-11T10:10:26.257Z,70.09
2018-08-11T10:11:36.576Z,69.89
2018-08-11T10:12:46.646Z,69.6
2018-08-11T10:13:56.730Z,70.22
2018-08-11T10:15:06.813Z,70.42
2018-08-11T10:16:16.637Z,70.32
2018-08-11T10:17:26.480Z,70.12
2018-08-11T10:18:36.779Z,70.06
2018-08-11T10:19:47.222Z,69.41
2018-08-11T10:20:57.070Z,69.44
2018-08-11T10:22:07.177Z,68.88
2018-08-11T10:23:17.284Z,69.09
2018-08-11T10:24:27.353Z,70.06
2018-08-11T10:25:37.435Z,70.52
2018-08-11T10:26:47.520Z,70.78
2018-08-11T10:27:57.613Z,71.08
2018-08-11T10:29:07.706Z,71.04
2018-08-11T10:30:17.787Z,71.23
2018-08-11T10:31:27.670Z,71.4
2018-08-11T10:32:37.503Z,71.04
2018-08-11T10:33:47.599Z,71.23
2018-08-11T10:34:57.686Z,70.94
2018-08-11T10:36:07.778Z,71.08
2018-08-11T10:37:17.650Z,70.68
2018-08-11T10:38:27.737Z,71.33
2018-08-11T10:39:37.824Z,71.59
2018-08-11T10:40:48.043Z,71.4
2018-08-11T10:41:58.151Z,71.4
2018-08-11T10:43:08.292Z,71.69
2018-08-11T10:44:18.388Z,71.5
2018-08-11T10:45:28.257Z,71.5
2018-08-11T10:46:38.365Z,71.4
2018-08-11T10:47:48.459Z,71.59
2018-08-11T10:48:58.549Z,71.2
2018-08-11T10:50:08.376Z,71.73
2018-08-11T10:51:18.476Z,71.43
2018-08-11T10:52:28.574Z,71.47
2018-08-11T10:53:38.688Z,71.08
2018-08-11T10:54:48.563Z,71.56
2018-08-11T10:55:58.766Z,72.41
2018-08-11T10:57:08.865Z,72.24
2018-08-11T10:58:18.955Z,72.53
2018-08-11T10:59:29.053Z,72.5
2018-08-11T11:00:39.152Z,73.38
2018-08-11T11:01:49.223Z,74.09
2018-08-11T11:02:59.322Z,73.86
2018-08-11T11:04:09.419Z,73.66
2018-08-11T11:05:19.505Z,73.37
2018-08-11T11:06:29.642Z,72.63
2018-08-11T11:07:39.215Z,72.43
2018-08-11T11:08:49.293Z,71.78
2018-08-11T11:09:59.132Z,71.33
2018-08-11T11:11:09.224Z,71.56
2018-08-11T11:12:19.319Z,71.4
2018-08-11T11:13:29.414Z,71.4
2018-08-11T11:14:39.517Z,71.2
2018-08-11T11:15:49.597Z,71.08
2018-08-11T11:16:59.423Z,70.48
2018-08-11T11:18:08.981Z,70.62
2018-08-11T11:19:18.281Z,71.56
2018-08-11T11:20:28.369Z,71.47
2018-08-11T11:21:37.931Z,71.62
2018-08-11T11:22:48.015Z,72.18
2018-08-11T11:23:58.108Z,73.32
2018-08-11T11:25:08.192Z,72.99
2018-08-11T11:26:18.275Z,72.83
2018-08-11T11:27:28.351Z,72.7
2018-08-11T11:28:38.420Z,72.86
2018-08-11T11:29:48.514Z,72.99
2018-08-11T11:30:58.679Z,72.89
2018-08-11T11:32:08.762Z,73.19
2018-08-11T11:33:18.584Z,72.02
2018-08-11T11:34:28.646Z,72.83
2018-08-11T11:35:38.732Z,73.13
2018-08-11T11:36:48.815Z,72.83
2018-08-11T11:37:58.630Z,71.89
2018-08-11T11:39:08.733Z,72.77
2018-08-11T11:40:18.858Z,73.03
2018-08-11T11:41:28.948Z,72.89
2018-08-11T11:42:39.020Z,73.58
2018-08-11T11:43:49.177Z,73.48
2018-08-11T11:44:59.263Z,73.93
2018-08-11T11:46:09.344Z,74.09
2018-08-11T11:47:19.448Z,73.5
2018-08-11T11:48:29.536Z,73.6
2018-08-11T11:49:39.627Z,73.99
2018-08-11T11:50:49.466Z,73.9
2018-08-11T11:51:59.537Z,73.5
2018-08-11T11:53:09.369Z,73.21
2018-08-11T11:54:19.207Z,73.99
2018-08-11T11:55:29.285Z,74.25
2018-08-11T11:56:39.367Z,74.32
2018-08-11T11:57:49.457Z,74.22
2018-08-11T11:58:59.550Z,74.71
2018-08-11T12:00:09.647Z,74.61
2018-08-11T12:01:19.749Z,74.08
2018-08-11T12:02:29.831Z,74.34
2018-08-11T12:03:39.912Z,74.15
2018-08-11T12:04:50.017Z,74.44
2018-08-11T12:06:00.248Z,74.34
2018-08-11T12:07:10.341Z,73.11
2018-08-11T12:08:20.162Z,72.85
2018-08-11T12:09:30.250Z,72.69
2018-08-11T12:10:40.328Z,71.75
2018-08-11T12:11:50.425Z,71.78
2018-08-11T12:13:00.492Z,71.62
2018-08-11T12:14:10.599Z,71.23
2018-08-11T12:15:20.663Z,71.36
2018-08-11T12:16:30.753Z,71.36
2018-08-11T12:17:40.836Z,71.46
2018-08-11T12:18:50.637Z,72.24
2018-08-11T12:20:00.774Z,71.85
2018-08-11T12:21:11.102Z,72.63
2018-08-11T12:22:21.065Z,72.6
2018-08-11T12:23:30.636Z,72.8
2018-08-11T12:24:40.203Z,73.28
2018-08-11T12:25:50.288Z,73.28
2018-08-11T12:27:00.134Z,72.7
2018-08-11T12:28:09.683Z,73.48
2018-08-11T12:29:19.792Z,73.48
2018-08-11T12:30:29.897Z,73.38
2018-08-11T12:31:40.012Z,73.28
2018-08-11T12:32:50.106Z,73.13
2018-08-11T12:33:59.926Z,72.63
2018-08-11T12:35:10.027Z,72.86
2018-08-11T12:36:20.121Z,72.67
2018-08-11T12:37:30.012Z,72.77
2018-08-11T12:38:40.109Z,72.74
2018-08-11T12:39:49.933Z,73.03
2018-08-11T12:41:00.024Z,72.53
2018-08-11T12:42:09.864Z,72.38
2018-08-11T12:43:19.942Z,72.28
2018-08-11T12:44:30.035Z,72.12
2018-08-11T12:45:40.264Z,72.41
2018-08-11T12:46:50.379Z,72.16
2018-08-11T12:48:00.207Z,73.1
2018-08-11T12:49:10.340Z,72.86
2018-08-11T12:50:20.198Z,72.9
2018-08-11T12:51:30.032Z,72.77
2018-08-11T12:52:39.877Z,73.46
2018-08-11T12:53:49.965Z,72.93
2018-08-11T12:55:00.046Z,72.8
2018-08-11T12:56:10.134Z,72.9
2018-08-11T12:57:20.216Z,72.61
2018-08-11T12:58:30.042Z,72.12
2018-08-11T12:59:40.128Z,72.16
2018-08-11T13:00:50.287Z,72.94
2018-08-11T13:02:00.370Z,72.96
2018-08-11T13:03:10.484Z,72.77
2018-08-11T13:04:20.596Z,72.38
2018-08-11T13:05:30.688Z,72.12
2018-08-11T13:06:40.496Z,72.25
2018-08-11T13:07:50.710Z,73.19
2018-08-11T13:09:00.545Z,73.29
2018-08-11T13:10:10.647Z,74.04
2018-08-11T13:11:20.716Z,74.1
2018-08-11T13:12:30.795Z,74.26
2018-08-11T13:13:40.881Z,75.01
2018-08-11T13:14:50.703Z,74.48
2018-08-11T13:16:00.797Z,74.38
2018-08-11T13:17:10.887Z,75.17
2018-08-11T13:18:20.985Z,74.81
2018-08-11T13:19:31.072Z,74.77
2018-08-11T13:20:41.315Z,74.58
2018-08-11T13:21:51.539Z,74.38
2018-08-11T13:23:01.639Z,74.68
2018-08-11T13:24:11.717Z,74.48
2018-08-11T13:25:21.812Z,75.04
2018-08-11T13:26:31.901Z,74.93
2018-08-11T13:27:41.997Z,74.25
2018-08-11T13:28:52.106Z,74.64
2018-08-11T13:30:02.191Z,74.77
2018-08-11T13:31:12.016Z,74.54
2018-08-11T13:32:21.843Z,74.35
2018-08-11T13:33:31.924Z,74.25
2018-08-11T13:34:41.738Z,74.25
2018-08-11T13:35:51.829Z,73.96
2018-08-11T13:37:01.905Z,74.19
2018-08-11T13:38:11.991Z,73.93
2018-08-11T13:39:22.084Z,73.09
2018-08-11T13:40:32.163Z,73.38
2018-08-11T13:41:42.051Z,73.03
2018-08-11T13:42:52.166Z,73.61
2018-08-11T13:44:02.253Z,73.22
2018-08-11T13:45:12.349Z,73.42
2018-08-11T13:46:22.183Z,72.86
2018-08-11T13:47:32.021Z,72.77
2018-08-11T13:48:42.112Z,72.9
2018-08-11T13:49:52.530Z,72.64
2018-08-11T13:51:02.658Z,72.74
2018-08-11T13:52:12.225Z,73.23
2018-08-11T13:53:22.339Z,73.1
2018-08-11T13:54:32.467Z,73.88
2018-08-11T13:55:42.566Z,73.98
2018-08-11T13:56:52.653Z,73.85
2018-08-11T13:58:02.737Z,73.94
2018-08-11T13:59:12.583Z,74.63
2018-08-11T14:00:22.676Z,74.43
2018-08-11T14:01:32.956Z,74.79
2018-08-11T14:02:43.211Z,74.49
2018-08-11T14:03:52.762Z,74.95
2018-08-11T14:05:03.124Z,74.85
2018-08-11T14:06:13.228Z,74.65
2018-08-11T14:07:23.369Z,74.65
2018-08-11T14:08:33.314Z,74.55
2018-08-11T14:09:43.399Z,74.65
2018-08-11T14:10:53.484Z,75.04
2018-08-11T14:12:03.599Z,74.71
2018-08-11T14:13:13.682Z,74.65
2018-08-11T14:14:23.509Z,74.85
2018-08-11T14:15:33.595Z,74.75
2018-08-11T14:16:43.466Z,74.95
2018-08-11T14:17:53.540Z,74.71
2018-08-11T14:19:03.620Z,74.36
2018-08-11T14:20:13.755Z,74.36
2018-08-11T14:21:24.028Z,74.55
2018-08-11T14:22:33.849Z,74.07
2018-08-11T14:23:43.390Z,74.07
2018-08-11T14:24:53.504Z,74.36
2018-08-11T14:26:03.618Z,74.46
2018-08-11T14:27:13.706Z,74.46
2018-08-11T14:28:23.851Z,74.36
2018-08-11T14:29:33.943Z,74.49
2018-08-11T14:30:44.045Z,74.46
2018-08-11T14:31:54.177Z,74.26
2018-08-11T14:33:04.272Z,74.36
2018-08-11T14:34:14.355Z,74.26
2018-08-11T14:35:24.457Z,74.95
2018-08-11T14:36:34.300Z,75.04
2018-08-11T14:37:44.396Z,74.26
2018-08-11T14:38:54.510Z,74.26
2018-08-11T14:40:04.614Z,74.26
2018-08-11T14:41:14.701Z,74.36
2018-08-11T14:42:24.559Z,74.26
2018-08-11T14:43:34.650Z,74.65
2018-08-11T14:44:44.739Z,74.16
2018-08-11T14:45:54.852Z,74.1
2018-08-11T14:47:04.942Z,74.01
2018-08-11T14:48:15.032Z,74.49
2018-08-11T14:49:24.607Z,74.01
2018-08-11T14:50:34.875Z,74.3
2018-08-11T14:51:45.259Z,74.01
2018-08-11T14:52:55.336Z,74.01
2018-08-11T14:54:05.418Z,74.1
2018-08-11T14:55:15.492Z,74.4
2018-08-11T14:56:25.522Z,74.3
2018-08-11T14:57:35.592Z,74.33
2018-08-11T14:58:45.409Z,74.3
2018-08-11T14:59:55.505Z,74.1
2018-08-11T15:01:05.606Z,74.01
2018-08-11T15:02:15.715Z,74.2
2018-08-11T15:03:25.849Z,74.01
2018-08-11T15:04:35.939Z,74.1
2018-08-11T15:05:46.028Z,74.1
2018-08-11T15:06:56.100Z,74.59
2018-08-11T15:08:06.192Z,74.2
2018-08-11T15:09:16.321Z,74.2
2018-08-11T15:10:26.164Z,74.4
2018-08-11T15:11:36.241Z,74.59
2018-08-11T15:12:46.342Z,74.4
2018-08-11T15:13:56.171Z,74.59
2018-08-11T15:15:06.325Z,74.4
2018-08-11T15:16:16.518Z,74.46
2018-08-11T15:17:26.741Z,74.49
2018-08-11T15:18:36.822Z,74.55
2018-08-11T15:19:46.914Z,74.4
2018-08-11T15:20:56.749Z,74.46
2018-08-11T15:22:06.586Z,74.46
2018-08-11T15:23:16.720Z,74.65
2018-08-11T15:24:26.832Z,74.16
2018-08-11T15:25:36.659Z,74.49
2018-08-11T15:26:46.744Z,74.3
2018-08-11T15:27:56.810Z,74.1
2018-08-11T15:29:07.049Z,73.97
2018-08-11T15:30:16.857Z,74.3
2018-08-11T15:31:26.939Z,74.49
2018-08-11T15:32:36.765Z,74.49
2018-08-11T15:33:46.869Z,74.2
2018-08-11T15:34:56.978Z,74.69
2018-08-11T15:36:06.799Z,74.26